Time;durP1;ratioP1;P1;durP2;ratioP2;P2;SDS_P1;SDS_P2;PMS_P1;PMS_P2;Temp;Humidity;BMP_temperature;BMP_pressure;BME280_temperature;BME280_humidity;BME280_pressure;Samples;Min_cycle;Max_cycle;Signal;HPM_P1;HPM_P2
2022/09/07 00:01:09;;;;;;;;;;;22.20;36.30;;;20.22;39.26;101264.44;12263164;19;19911;-90
2022/09/07 00:05:11;;;;;;;;;;;22.10;36.30;;;20.25;39.26;101289.84;12260731;19;19922;-89
2022/09/07 00:09:12;;;;;;;;;;;22.10;36.30;;;20.11;39.32;101275.16;12259158;19;20326;-90
2022/09/07 00:13:14;;;;;;;;;;;22.00;36.30;;;20.22;39.09;101301.56;12259801;19;19943;-89
2022/09/07 00:17:16;;;;;;;;;;;22.30;36.50;;;20.24;39.34;101291.69;12262215;19;20403;-90
2022/09/07 00:21:17;;;;;;;;;;;22.00;36.40;;;20.24;39.49;101281.06;12259699;19;19978;-90
2022/09/07 00:25:19;;;;;;;;;;;22.00;36.40;;;20.32;39.53;101275.94;12261243;19;19978;-89
2022/09/07 00:29:20;;;;;;;;;;;22.00;36.40;;;20.17;39.32;101253.41;12260772;19;20334;-91
2022/09/07 00:33:22;;;;;;;;;;;22.00;36.40;;;20.11;39.18;101251.28;12255242;19;19915;-90
2022/09/07 00:37:23;;;;;;;;;;;21.90;36.50;;;20.21;39.56;101268.06;12257236;19;19919;-89
2022/09/07 00:41:25;;;;;;;;;;;22.00;36.50;;;20.10;39.23;101246.97;12256768;19;20257;-89
2022/09/07 00:45:26;;;;;;;;;;;21.90;36.50;;;19.91;39.44;101229.16;12257345;19;20274;-90
2022/09/07 00:49:28;;;;;;;;;;;22.00;36.50;;;19.94;39.55;101239.50;12259516;19;19946;-89
2022/09/07 00:53:35;;;;;;;;;;;21.80;36.50;;;19.89;39.52;101239.88;12255738;19;19922;-89
2022/09/07 00:57:40;;;;;;;;;;;21.70;36.50;;;19.93;39.46;101253.75;12257833;19;20355;-89
2022/09/07 01:01:41;;;;;;;;;;;21.70;36.50;;;19.88;39.48;101242.69;12257014;19;19919;-89
2022/09/07 01:06:12;;;;;;;;;;;21.70;36.50;;;19.96;39.43;101276.50;12259942;19;19910;-89
2022/09/07 01:10:15;;;;;;;;;;;21.60;36.60;;;19.94;39.57;101270.47;12263462;19;19922;-90
2022/09/07 01:14:19;;;;;;;;;;;21.60;36.60;;;19.76;39.16;101244.56;12261870;19;19922;-89
2022/09/07 01:18:41;;;;;;;;;;;21.60;36.50;;;19.86;39.54;101253.41;12260504;19;19914;-89
2022/09/07 01:23:19;;;;;;;;;;;21.60;36.60;;;19.78;39.42;101253.22;12257807;19;19923;-89
2022/09/07 01:27:50;;;;;;;;;;;21.60;36.60;;;19.60;39.77;101239.69;12258044;19;19930;-90
2022/09/07 01:31:55;;;;;;;;;;;21.40;36.50;;;19.59;39.47;101255.75;12255375;19;19914;-89
2022/09/07 01:35:59;;;;;;;;;;;21.40;36.60;;;19.55;39.53;101260.47;12257349;19;19907;-89
2022/09/07 01:40:18;;;;;;;;;;;21.30;36.60;;;19.21;39.69;101196.25;12260658;19;19929;-90
2022/09/07 01:44:39;;;;;;;;;;;21.30;36.70;;;19.45;39.59;101241.84;12256323;19;19978;-90
2022/09/07 01:48:43;;;;;;;;;;;21.20;36.60;;;19.32;39.57;101227.97;12257160;19;19918;-90
2022/09/07 01:53:07;;;;;;;;;;;21.30;36.70;;;19.30;39.55;101219.31;12250438;19;19923;-89
2022/09/07 01:57:18;;;;;;;;;;;21.20;36.70;;;19.31;39.60;101250.13;12257875;19;19986;-89
2022/09/07 02:01:25;;;;;;;;;;;21.10;36.70;;;19.16;39.92;101244.28;12258403;19;20592;-89
2022/09/07 02:05:38;;;;;;;;;;;21.10;36.70;;;19.14;39.64;101254.16;12261735;19;19911;-89
2022/09/07 02:09:50;;;;;;;;;;;21.00;36.80;;;18.80;39.74;101195.25;12256712;19;20306;-89
2022/09/07 02:13:57;;;;;;;;;;;20.90;36.80;;;18.74;39.83;101182.47;12255063;19;19919;-90
2022/09/07 02:18:03;;;;;;;;;;;20.90;36.80;;;18.66;39.70;101184.91;12257217;19;20354;-90
2022/09/07 02:22:12;;;;;;;;;;;20.80;36.80;;;18.74;39.59;101208.94;12260053;19;19915;-88
2022/09/07 02:26:20;;;;;;;;;;;20.80;36.90;;;18.72;39.82;101217.03;12265504;19;19918;-90
2022/09/07 02:30:21;;;;;;;;;;;20.70;36.90;;;18.63;39.76;101201.03;12264752;19;19921;-89
2022/09/07 02:34:23;;;;;;;;;;;20.60;36.90;;;18.67;39.94;101208.63;12275372;19;19930;-91
2022/09/07 02:38:25;;;;;;;;;;;20.50;37.00;;;18.62;39.91;101204.66;12273988;19;19925;-90
2022/09/07 02:42:31;;;;;;;;;;;20.50;37.00;;;18.54;39.83;101198.19;12270491;19;20206;-91
2022/09/07 02:46:57;;;;;;;;;;;20.50;37.00;;;18.55;40.07;101207.81;12275426;19;19927;-89
2022/09/07 02:51:17;;;;;;;;;;;20.40;37.20;;;18.47;39.90;101207.59;12275466;19;19919;-90
2022/09/07 02:55:30;;;;;;;;;;;20.30;37.10;;;18.50;39.90;101220.56;12278063;19;19943;-89
2022/09/07 02:59:35;;;;;;;;;;;20.30;37.20;;;18.50;40.09;101231.16;12275433;19;19919;-90
2022/09/07 03:03:54;;;;;;;;;;;20.30;37.20;;;18.07;40.03;101160.56;12269227;19;20584;-89
2022/09/07 03:08:15;;;;;;;;;;;20.20;37.30;;;18.41;40.24;101216.00;12270486;19;19948;-89
2022/09/07 03:12:18;;;;;;;;;;;20.20;37.40;;;18.23;40.11;101201.63;12273134;19;19919;-89
2022/09/07 03:16:19;;;;;;;;;;;20.20;37.30;;;17.90;40.27;101164.56;12274792;19;19907;-89
2022/09/07 03:20:22;;;;;;;;;;;20.10;37.30;;;18.25;40.18;101223.50;12274500;19;19923;-90
2022/09/07 03:24:23;;;;;;;;;;;20.10;37.30;;;18.28;40.21;101231.16;12258793;19;19919;-89
2022/09/07 03:28:24;;;;;;;;;;;20.00;37.30;;;18.04;40.01;101187.25;12263027;19;19914;-89
2022/09/07 03:32:31;;;;;;;;;;;20.00;37.70;;;18.09;40.26;101208.88;12264411;19;19919;-89
2022/09/07 03:36:33;;;;;;;;;;;19.90;37.40;;;17.65;40.20;101165.59;12311150;19;19915;-89
2022/09/07 03:40:35;;;;;;;;;;;20.00;37.40;;;17.78;40.32;101207.75;12307230;19;19915;-90
2022/09/07 03:44:36;;;;;;;;;;;19.80;37.50;;;17.77;40.50;101210.50;12303352;19;19907;-89
2022/09/07 03:48:38;;;;;;;;;;;19.80;37.50;;;17.70;40.38;101205.69;12307904;19;19911;-90
2022/09/07 03:52:39;;;;;;;;;;;19.60;37.50;;;17.63;40.57;101203.63;12304880;19;19915;-90
2022/09/07 03:56:41;;;;;;;;;;;19.50;37.50;;;17.42;40.43;101182.41;12305033;19;19914;-89
2022/09/07 04:00:43;;;;;;;;;;;19.50;37.70;;;17.46;40.47;101197.03;12306130;19;19915;-89
2022/09/07 04:04:47;;;;;;;;;;;19.60;37.80;;;17.46;40.48;101199.66;12303767;19;19915;-89
2022/09/07 04:08:49;;;;;;;;;;;19.30;37.60;;;16.83;40.72;101105.97;12306069;19;19914;-89
2022/09/07 04:12:51;;;;;;;;;;;19.30;37.60;;;17.12;40.61;101159.16;12302963;19;19915;-89
2022/09/07 04:16:52;;;;;;;;;;;19.30;37.80;;;17.05;40.77;101160.59;12307558;19;19914;-90
2022/09/07 04:20:57;;;;;;;;;;;19.40;37.80;;;16.95;40.88;101145.44;12306513;19;19945;-90
2022/09/07 04:24:59;;;;;;;;;;;19.00;37.70;;;16.52;40.53;101087.13;12304385;19;19899;-89
2022/09/07 04:29:01;;;;;;;;;;;19.20;37.90;;;16.72;40.93;101120.78;12306713;19;19934;-89
2022/09/07 04:33:03;;;;;;;;;;;18.90;37.70;;;16.60;41.09;101105.84;12302694;19;19918;-89
2022/09/07 04:37:05;;;;;;;;;;;18.80;37.80;;;16.67;40.80;101122.91;12304890;19;19907;-87
2022/09/07 04:41:16;;;;;;;;;;;18.80;38.00;;;17.01;40.75;101166.09;12300381;19;19914;-88
2022/09/07 04:45:19;;;;;;;;;;;18.80;38.00;;;16.97;40.90;101172.56;12294215;19;19935;-88
2022/09/07 04:49:20;;;;;;;;;;;18.80;38.10;;;17.03;40.87;101179.16;12299579;19;19951;-89
2022/09/07 04:53:22;;;;;;;;;;;19.10;38.10;;;17.06;40.89;101181.56;12292809;19;19927;-88
2022/09/07 04:57:25;;;;;;;;;;;18.80;38.10;;;16.99;40.87;101151.34;12300189;19;19919;-88
2022/09/07 05:01:26;;;;;;;;;;;18.90;38.10;;;17.05;41.04;101148.22;12297741;19;19931;-88
2022/09/07 05:05:28;;;;;;;;;;;18.90;38.30;;;17.24;40.92;101172.25;12279934;19;19926;-89
2022/09/07 05:09:29;;;;;;;;;;;18.90;38.20;;;17.14;41.06;101160.72;12289215;19;19929;-88
2022/09/07 05:13:31;;;;;;;;;;;19.00;38.10;;;17.27;41.01;101173.84;12282012;19;20357;-88
2022/09/07 05:17:33;;;;;;;;;;;19.00;38.20;;;17.20;40.90;101162.91;12285503;19;19915;-90
2022/09/07 05:21:34;;;;;;;;;;;19.10;38.20;;;17.26;41.33;101172.16;12291616;19;19915;-88
2022/09/07 05:25:42;;;;;;;;;;;19.00;38.10;;;17.02;40.93;101130.00;12286102;19;19936;-89
2022/09/07 05:29:44;;;;;;;;;;;19.00;38.20;;;17.28;40.94;101172.88;12287492;19;19922;-89
2022/09/07 05:33:50;;;;;;;;;;;19.10;38.10;;;17.21;41.12;101159.31;12280094;19;19915;-90
2022/09/07 05:37:52;;;;;;;;;;;19.10;38.20;;;17.23;41.35;101144.19;12285736;19;19935;-90
2022/09/07 05:41:53;;;;;;;;;;;19.10;38.00;;;17.25;41.12;101157.25;12262018;19;20357;-91
2022/09/07 05:45:55;;;;;;;;;;;19.10;38.20;;;17.29;41.20;101147.34;12253648;19;19918;-89
2022/09/07 05:49:56;;;;;;;;;;;19.00;38.40;;;17.22;41.43;101139.03;12256063;19;19907;-88
2022/09/07 05:53:58;;;;;;;;;;;19.30;38.20;;;17.20;41.57;101125.09;12251267;19;19915;-89
2022/09/07 05:57:59;;;;;;;;;;;19.10;38.40;;;17.28;41.61;101138.53;12252257;19;19915;-88
2022/09/07 06:02:01;;;;;;;;;;;19.10;38.10;;;17.28;41.40;101137.72;12247303;19;19930;-90
2022/09/07 06:06:17;;;;;;;;;;;19.10;38.30;;;17.39;41.30;101135.94;12258982;19;19975;-90
2022/09/07 06:10:19;;;;;;;;;;;19.20;38.70;;;17.59;41.33;101159.97;12272166;19;19949;-87
2022/09/07 06:14:20;;;;;;;;;;;19.20;38.90;;;17.62;41.28;101157.91;12272096;19;20389;-89
2022/09/07 06:18:22;;;;;;;;;;;19.40;38.60;;;17.79;41.30;101161.06;12262360;19;20262;-89
2022/09/07 06:22:24;;;;;;;;;;;19.40;38.80;;;17.82;41.66;101148.47;12259711;19;19946;-89
2022/09/07 06:26:25;;;;;;;;;;;19.50;38.80;;;17.76;41.52;101119.00;12264899;19;19940;-90
2022/09/07 06:30:28;;;;;;;;;;;19.60;38.80;;;18.01;41.45;101137.28;12264032;19;19940;-90
2022/09/07 06:34:30;;;;;;;;;;;19.80;38.60;;;18.14;41.35;101126.53;12262596;19;19927;-91
2022/09/07 06:38:36;;;;;;;;;;;19.80;38.80;;;18.31;41.37;101135.75;12264031;19;19926;-90
2022/09/07 06:42:38;;;;;;;;;;;20.00;38.70;;;18.16;41.58;101100.00;12257743;19;19922;-89
2022/09/07 06:46:39;;;;;;;;;;;20.30;38.70;;;18.55;41.31;101154.06;12259809;19;19919;-90
2022/09/07 06:50:40;;;;;;;;;;;20.20;38.80;;;18.70;41.59;101157.25;12259957;19;20337;-91
2022/09/07 06:54:42;;;;;;;;;;;20.30;38.80;;;18.53;41.36;101100.47;12257928;19;19926;-90
2022/09/07 06:58:43;;;;;;;;;;;20.50;38.80;;;18.95;41.56;101145.50;12255294;19;19911;-91
2022/09/07 07:02:45;;;;;;;;;;;20.60;38.60;;;19.03;41.42;101135.09;12255671;19;19952;-92
2022/09/07 07:06:46;;;;;;;;;;;20.70;38.60;;;18.59;41.29;101054.97;12258468;19;20259;-91
2022/09/07 07:10:48;;;;;;;;;;;20.80;38.70;;;19.10;41.56;101132.78;12259900;19;19915;-89
2022/09/07 07:14:50;;;;;;;;;;;20.90;38.90;;;18.90;41.45;101092.09;12257728;19;19926;-89
2022/09/07 07:18:55;;;;;;;;;;;20.90;38.70;;;19.25;41.33;101120.88;12265352;19;19926;-90
2022/09/07 07:22:56;;;;;;;;;;;21.00;38.60;;;19.08;41.64;101085.25;12268419;19;20318;-90
2022/09/07 07:26:57;;;;;;;;;;;21.10;38.70;;;19.37;41.53;101109.22;12269754;19;19903;-89
2022/09/07 07:31:00;;;;;;;;;;;21.10;38.70;;;19.61;41.41;101116.88;12270739;19;19929;-90
2022/09/07 07:35:02;;;;;;;;;;;21.20;38.80;;;19.61;41.47;101100.13;12267881;19;20007;-90
2022/09/07 07:39:04;;;;;;;;;;;21.40;38.90;;;20.02;41.49;101143.41;12260158;19;19943;-92
2022/09/07 07:43:08;;;;;;;;;;;21.70;39.00;;;20.12;41.48;101128.34;12261251;19;19911;-90
2022/09/07 07:47:09;;;;;;;;;;;21.60;38.90;;;19.75;41.50;101043.31;12263944;19;19917;-90
2022/09/07 07:51:11;;;;;;;;;;;21.80;39.00;;;20.12;41.54;101067.38;12267642;19;19919;-91
2022/09/07 07:55:12;;;;;;;;;;;21.90;38.90;;;20.32;41.48;101061.06;12265337;19;19919;-90
2022/09/07 07:59:14;;;;;;;;;;;22.20;38.90;;;20.37;41.76;101035.97;12263596;19;19926;-89
2022/09/07 08:03:16;;;;;;;;;;;22.40;39.20;;;20.50;41.38;101020.59;12255925;19;19922;-90
2022/09/07 08:07:18;;;;;;;;;;;22.50;39.20;;;20.96;41.47;101056.97;12258688;19;19974;-90
2022/09/07 08:11:20;;;;;;;;;;;22.70;38.90;;;21.14;41.27;101054.41;12256176;19;20329;-89
2022/09/07 08:15:22;;;;;;;;;;;22.90;39.20;;;21.55;41.23;101089.50;12260842;19;20357;-90
2022/09/07 08:19:23;;;;;;;;;;;23.10;38.80;;;21.45;41.26;101055.97;12254414;19;19919;-89
2022/09/07 08:23:25;;;;;;;;;;;23.30;39.00;;;22.02;41.22;101112.47;12246750;19;20357;-90
2022/09/07 08:27:26;;;;;;;;;;;23.50;39.10;;;21.64;41.11;101014.19;12254129;19;19917;-89
2022/09/07 08:31:28;;;;;;;;;;;23.70;39.20;;;22.31;41.46;101099.00;12250456;19;19982;-87
2022/09/07 08:35:29;;;;;;;;;;;23.90;39.30;;;22.42;41.49;101090.78;12262207;19;19911;-89
2022/09/07 08:39:30;;;;;;;;;;;24.20;39.10;;;22.77;41.36;101114.84;12258087;19;19978;-90
2022/09/07 08:43:51;;;;;;;;;;;24.40;39.10;;;23.04;41.01;101128.06;12254427;19;19974;-89
2022/09/07 08:47:52;;;;;;;;;;;24.40;38.90;;;23.23;41.45;101127.03;12253397;19;19930;-89
2022/09/07 08:52:08;;;;;;;;;;;24.60;39.00;;;23.36;41.27;101103.44;12252378;19;19911;-89
2022/09/07 08:56:16;;;;;;;;;;;24.80;39.00;;;23.67;41.19;101126.06;12257223;19;19934;-89
2022/09/07 09:00:17;;;;;;;;;;;25.00;38.90;;;23.79;41.04;101112.31;12255402;19;19915;-88
2022/09/07 09:04:27;;;;;;;;;;;25.20;38.80;;;23.90;40.89;101097.84;12253341;19;19911;-89
2022/09/07 09:09:02;;;;;;;;;;;25.40;39.00;;;24.16;41.18;101102.22;12250024;19;19925;-88
2022/09/07 09:13:46;;;;;;;;;;;25.50;38.90;;;24.37;40.89;101110.59;12248570;19;19939;-89
2022/09/07 09:18:12;;;;;;;;;;;25.70;38.90;;;24.47;41.12;101087.28;12248908;19;19911;-89
2022/09/07 09:22:17;;;;;;;;;;;25.90;38.90;;;24.70;40.76;101086.59;12248287;19;19926;-90
2022/09/07 09:26:23;;;;;;;;;;;26.10;39.00;;;24.88;41.07;101083.75;12248070;19;19926;-90
2022/09/07 09:30:26;;;;;;;;;;;26.20;38.90;;;24.58;40.61;101015.84;12249432;19;20349;-89
2022/09/07 09:34:28;;;;;;;;;;;26.40;38.90;;;24.71;40.71;101003.63;12250074;19;19915;-89
2022/09/07 09:38:38;;;;;;;;;;;26.50;38.90;;;25.26;40.55;101059.97;12252383;19;19922;-89
2022/09/07 09:42:40;;;;;;;;;;;26.70;38.90;;;25.11;40.79;101031.25;12245744;19;19963;-89
2022/09/07 09:46:46;;;;;;;;;;;26.90;38.80;;;25.19;40.57;101029.56;12249540;19;19911;-90
2022/09/07 09:50:50;;;;;;;;;;;27.00;38.80;;;25.48;40.79;101061.03;12246660;19;19926;-89
2022/09/07 09:54:55;;;;;;;;;;;27.00;38.90;;;25.39;40.57;101014.78;12248160;19;20358;-89
2022/09/07 09:59:16;;;;;;;;;;;27.10;38.90;;;25.75;40.55;101062.41;12248330;19;19927;-89
2022/09/07 10:03:17;;;;;;;;;;;27.20;38.90;;;25.95;40.76;101063.66;12245014;19;19914;-89
2022/09/07 10:07:26;;;;;;;;;;;27.30;38.90;;;26.01;40.59;101044.22;12247897;19;19991;-90
2022/09/07 10:11:41;;;;;;;;;;;27.50;38.90;;;26.22;40.59;101048.06;12243919;19;19926;-89
2022/09/07 10:15:48;;;;;;;;;;;27.60;38.90;;;26.40;40.80;101048.56;12248311;19;19919;-89
2022/09/07 10:19:50;;;;;;;;;;;27.80;38.90;;;26.47;40.41;101035.31;12249182;19;19944;-90
2022/09/07 10:24:14;;;;;;;;;;;27.90;38.80;;;26.61;40.69;101041.75;12243132;19;20523;-89
2022/09/07 10:28:18;;;;;;;;;;;28.00;38.80;;;26.65;40.65;101032.31;12250006;19;19926;-90
2022/09/07 10:32:41;;;;;;;;;;;28.10;38.80;;;26.68;40.37;101021.22;12245062;19;19930;-89
2022/09/07 10:36:55;;;;;;;;;;;28.20;38.80;;;26.82;40.48;101017.75;12248755;19;20249;-88
2022/09/07 10:41:08;;;;;;;;;;;28.30;38.70;;;26.95;40.30;101010.88;12248549;19;19922;-89
2022/09/07 10:45:15;;;;;;;;;;;28.40;38.80;;;27.11;40.12;101011.53;12246892;19;19948;-89
2022/09/07 10:49:23;;;;;;;;;;;28.50;38.70;;;26.96;40.38;100967.81;12248730;19;19943;-89
2022/09/07 10:53:38;;;;;;;;;;;28.70;38.80;;;27.36;40.19;101025.50;12251161;19;20318;-89
2022/09/07 10:58:01;;;;;;;;;;;28.80;38.70;;;27.34;40.26;101029.38;12259207;19;19915;-89
2022/09/07 11:02:33;;;;;;;;;;;28.80;38.70;;;27.30;40.04;101026.25;12260212;19;19949;-88
2022/09/07 11:06:44;;;;;;;;;;;28.80;38.60;;;27.30;40.24;101026.25;12265311;19;19929;-90
2022/09/07 11:10:52;;;;;;;;;;;28.80;38.60;;;27.33;40.27;101020.50;12258244;19;19919;-89
2022/09/07 11:15:11;;;;;;;;;;;28.80;38.60;;;27.34;40.30;101014.13;12254889;19;19924;-89
2022/09/07 11:19:21;;;;;;;;;;;28.80;38.50;;;27.33;40.31;101014.31;12258383;19;19923;-89
2022/09/07 11:23:28;;;;;;;;;;;28.90;38.60;;;27.34;40.08;101015.97;12255459;19;20372;-91
2022/09/07 11:27:33;;;;;;;;;;;28.90;38.60;;;27.19;40.31;100991.84;12255536;19;19935;-89
2022/09/07 11:31:46;;;;;;;;;;;28.90;38.60;;;26.73;40.33;100930.41;12252548;19;19923;-91
2022/09/07 11:36:07;;;;;;;;;;;28.80;38.70;;;27.18;40.01;101006.28;12259501;19;19951;-91
2022/09/07 11:40:40;;;;;;;;;;;28.80;38.70;;;27.19;40.41;101015.97;12259686;19;19992;-89
2022/09/07 11:44:54;;;;;;;;;;;28.80;38.70;;;27.20;40.44;101009.63;12252633;19;19919;-89
2022/09/07 11:48:56;;;;;;;;;;;28.80;38.70;;;27.35;40.23;101013.13;12262011;19;20369;-89
2022/09/07 11:53:02;;;;;;;;;;;28.80;38.80;;;27.44;40.12;101010.31;12255640;19;19923;-90
2022/09/07 11:57:11;;;;;;;;;;;28.90;38.90;;;27.52;40.05;100999.47;12258810;19;19943;-89
2022/09/07 12:01:20;;;;;;;;;;;28.90;38.90;;;27.68;40.25;100984.97;12252964;19;19922;-90
2022/09/07 12:05:35;;;;;;;;;;;29.10;38.90;;;27.47;40.19;100946.38;12251953;19;20350;-90
2022/09/07 12:09:49;;;;;;;;;;;29.20;38.80;;;27.78;39.94;100999.72;12252541;19;19927;-89
2022/09/07 12:14:11;;;;;;;;;;;29.20;38.80;;;27.82;40.05;101002.09;12249736;19;19926;-91
2022/09/07 12:18:31;;;;;;;;;;;29.40;38.80;;;27.82;40.22;100996.72;12257796;19;19930;-90
2022/09/07 12:22:33;;;;;;;;;;;29.30;38.80;;;27.77;40.00;100989.22;12251534;19;19919;-89
2022/09/07 12:26:34;;;;;;;;;;;29.30;39.10;;;27.82;39.76;100991.34;12254845;19;19927;-90
2022/09/07 12:30:35;;;;;;;;;;;29.30;38.80;;;27.86;40.27;100989.94;12253875;19;19919;-89
2022/09/07 12:34:45;;;;;;;;;;;29.30;38.80;;;27.89;39.88;100986.88;12252381;19;19919;-91
2022/09/07 12:39:18;;;;;;;;;;;29.30;38.80;;;27.84;40.42;100987.47;12253427;19;20404;-89
2022/09/07 12:43:20;;;;;;;;;;;29.30;38.60;;;27.86;40.06;100987.25;12252848;19;19915;-89
2022/09/07 12:47:27;;;;;;;;;;;29.30;38.70;;;27.42;40.20;100905.06;12254699;19;20286;-90
2022/09/07 12:51:36;;;;;;;;;;;29.40;38.80;;;27.91;40.28;100990.19;12251369;19;20377;-90
2022/09/07 12:55:54;;;;;;;;;;;29.40;38.70;;;27.81;39.75;100960.97;12254339;19;19914;-89
2022/09/07 13:00:28;;;;;;;;;;;29.40;38.80;;;27.98;40.16;100972.31;12252082;19;19919;-89
2022/09/07 13:04:42;;;;;;;;;;;29.40;38.70;;;28.01;39.87;100971.91;12253071;19;19922;-88
2022/09/07 13:09:38;;;;;;;;;;;29.40;38.70;;;28.03;39.94;100964.50;12249445;19;20329;-91
2022/09/07 13:13:40;;;;;;;;;;;29.40;38.70;;;27.90;39.97;100953.66;12239257;19;19930;-90
2022/09/07 13:17:42;;;;;;;;;;;29.40;38.70;;;27.91;39.57;100942.69;12246667;19;19921;-89
2022/09/07 13:21:47;;;;;;;;;;;29.40;38.70;;;27.83;39.64;100926.72;12248468;19;19935;-89
2022/09/07 13:25:52;;;;;;;;;;;29.40;38.70;;;27.99;39.78;100955.16;12247014;19;19931;-89
2022/09/07 13:30:03;;;;;;;;;;;29.70;38.80;;;27.92;40.15;100943.53;12247779;19;19915;-90
2022/09/07 13:34:33;;;;;;;;;;;29.40;38.60;;;28.02;39.94;100954.78;12245505;19;19918;-90
2022/09/07 13:38:35;;;;;;;;;;;29.50;38.60;;;27.94;39.84;100936.13;12248766;19;19927;-90
2022/09/07 13:42:42;;;;;;;;;;;29.50;38.60;;;28.03;39.98;100940.34;12245253;19;19923;-91
2022/09/07 13:46:43;;;;;;;;;;;29.50;38.70;;;28.06;40.06;100933.72;12247135;19;19951;-89
2022/09/07 13:50:55;;;;;;;;;;;29.60;38.80;;;27.85;39.90;100894.34;12247260;19;20318;-90
2022/09/07 13:55:21;;;;;;;;;;;29.50;38.70;;;28.09;40.01;100919.94;12247657;19;20002;-89
2022/09/07 13:59:29;;;;;;;;;;;29.50;38.70;;;27.96;39.82;100896.50;12249978;19;19945;-89
2022/09/07 14:03:55;;;;;;;;;;;29.50;38.80;;;28.08;39.85;100899.47;12246584;19;20322;-91
2022/09/07 14:07:57;;;;;;;;;;;29.50;38.70;;;28.20;39.97;100919.38;12252900;19;19915;-89
2022/09/07 14:11:59;;;;;;;;;;;29.60;38.80;;;28.24;40.07;100920.63;12250644;19;20653;-90
2022/09/07 14:16:01;;;;;;;;;;;29.70;38.80;;;28.27;39.92;100919.41;12254645;19;19927;-91
2022/09/07 14:20:02;;;;;;;;;;;29.60;38.70;;;28.29;40.03;100909.31;12253090;19;19910;-89
2022/09/07 14:24:17;;;;;;;;;;;29.70;38.70;;;28.30;39.83;100909.13;12249301;19;19919;-90
2022/09/07 14:28:30;;;;;;;;;;;29.70;38.70;;;28.20;39.51;100857.63;12262423;19;19942;-90
2022/09/07 14:32:31;;;;;;;;;;;29.80;38.70;;;28.38;39.33;100895.53;12261074;19;19949;-90
2022/09/07 14:36:37;;;;;;;;;;;29.80;38.70;;;28.54;39.61;100917.75;12260107;19;19919;-90
2022/09/07 14:40:39;;;;;;;;;;;29.90;38.60;;;28.53;39.60;100898.13;12258399;19;19922;-90
2022/09/07 14:44:44;;;;;;;;;;;30.00;38.60;;;28.15;39.41;100841.25;12253175;19;19915;-90
2022/09/07 14:48:48;;;;;;;;;;;30.10;38.70;;;28.39;39.91;100893.69;12255006;19;19918;-91
2022/09/07 14:52:52;;;;;;;;;;;29.90;38.50;;;28.44;39.60;100902.00;12252603;19;19960;-89
2022/09/07 14:57:10;;;;;;;;;;;29.90;38.50;;;28.41;39.62;100897.00;12255835;19;19978;-89
2022/09/07 15:01:12;;;;;;;;;;;29.90;38.40;;;28.53;39.77;100908.03;12257440;19;19914;-87
2022/09/07 15:05:13;;;;;;;;;;;29.90;38.50;;;28.55;39.80;100914.06;12252315;19;19930;-91
2022/09/07 15:09:27;;;;;;;;;;;29.90;38.50;;;28.53;39.48;100902.66;12257625;19;19922;-90
2022/09/07 15:13:33;;;;;;;;;;;29.90;38.40;;;28.43;39.48;100887.72;12254674;19;19943;-91
2022/09/07 15:17:34;;;;;;;;;;;29.90;38.40;;;28.46;39.65;100889.19;12254849;19;19926;-89
2022/09/07 15:21:36;;;;;;;;;;;29.90;38.40;;;28.47;39.96;100892.72;12254050;19;19923;-89
2022/09/07 15:25:38;;;;;;;;;;;29.90;38.50;;;28.46;39.52;100883.81;12246981;19;19978;-90
2022/09/07 15:29:40;;;;;;;;;;;29.90;38.30;;;28.24;39.72;100850.81;12255601;19;19915;-91
2022/09/07 15:33:41;;;;;;;;;;;29.90;38.50;;;28.35;39.51;100885.16;12253116;19;19927;-91
2022/09/07 15:37:42;;;;;;;;;;;29.90;38.50;;;28.45;39.59;100892.91;12253326;19;19915;-88
2022/09/07 15:41:44;;;;;;;;;;;29.90;38.40;;;28.42;39.54;100885.22;12252148;19;19926;-88
2022/09/07 15:45:46;;;;;;;;;;;29.90;38.40;;;28.27;39.60;100861.16;12251703;19;20586;-88
2022/09/07 15:49:48;;;;;;;;;;;29.80;38.30;;;28.36;39.56;100875.28;12256572;19;19919;-87
2022/09/07 15:53:49;;;;;;;;;;;29.80;38.30;;;28.28;39.63;100857.47;12253282;19;19927;-88
2022/09/07 15:57:51;;;;;;;;;;;29.80;38.30;;;28.35;39.21;100860.16;12255966;19;21456;-88
2022/09/07 16:01:52;;;;;;;;;;;29.80;38.40;;;28.05;39.72;100809.38;12253604;19;19918;-88
2022/09/07 16:05:54;;;;;;;;;;;29.80;38.30;;;28.31;39.44;100854.38;12254629;19;19919;-90
2022/09/07 16:09:55;;;;;;;;;;;29.80;38.30;;;27.98;39.23;100801.31;12255283;19;19929;-91
2022/09/07 16:14:01;;;;;;;;;;;29.70;38.40;;;28.28;39.52;100844.03;12250053;19;19979;-90
2022/09/07 16:18:03;;;;;;;;;;;29.90;38.50;;;28.20;39.51;100842.31;12254694;19;19938;-90
2022/09/07 16:22:05;;;;;;;;;;;29.70;38.40;;;28.16;39.44;100842.91;12252812;19;19929;-90
2022/09/07 16:26:09;;;;;;;;;;;29.70;38.50;;;28.21;39.34;100862.78;12252991;19;19918;-89
2022/09/07 16:30:10;;;;;;;;;;;29.70;38.50;;;28.09;39.38;100831.31;12253660;19;20261;-89
2022/09/07 16:34:13;;;;;;;;;;;29.70;38.50;;;27.83;39.66;100795.22;12254561;19;19940;-89
2022/09/07 16:38:14;;;;;;;;;;;29.60;38.60;;;27.99;39.74;100823.59;12253893;19;19926;-89
2022/09/07 16:42:16;;;;;;;;;;;29.50;38.60;;;27.92;39.38;100826.25;12251293;19;19911;-90
2022/09/07 16:46:20;;;;;;;;;;;29.50;38.70;;;27.79;39.75;100835.00;12252709;19;19915;-89
2022/09/07 16:50:21;;;;;;;;;;;29.40;38.70;;;27.79;39.70;100843.06;12253175;19;19911;-89
2022/09/07 16:54:22;;;;;;;;;;;29.30;38.70;;;27.73;39.54;100843.00;12252298;19;19926;-89
2022/09/07 16:58:32;;;;;;;;;;;29.30;38.80;;;27.64;40.06;100849.53;12251391;19;22871;-90
2022/09/07 17:02:33;;;;;;;;;;;29.20;38.80;;;27.59;40.03;100858.97;12249074;19;19915;-89
2022/09/07 17:06:35;;;;;;;;;;;29.10;38.80;;;27.51;40.06;100847.56;12249357;19;19919;-89
2022/09/07 17:10:37;;;;;;;;;;;29.00;38.80;;;27.27;39.72;100816.59;12250979;19;19915;-89
2022/09/07 17:14:39;;;;;;;;;;;29.00;38.90;;;27.31;40.00;100837.50;12251421;19;19923;-89
2022/09/07 17:18:41;;;;;;;;;;;28.90;38.90;;;27.19;39.95;100830.13;12250785;19;19929;-90
2022/09/07 17:22:43;;;;;;;;;;;28.80;39.00;;;27.19;40.27;100836.31;12248900;19;19930;-89
2022/09/07 17:26:44;;;;;;;;;;;28.70;39.10;;;27.16;40.08;100890.31;12250425;19;19917;-87
2022/09/07 17:30:45;;;;;;;;;;;28.70;39.00;;;27.06;39.88;100911.25;12250114;19;19927;-89
2022/09/07 17:34:47;;;;;;;;;;;28.60;39.00;;;26.99;40.19;100921.06;12252255;19;19933;-88
2022/09/07 17:38:49;;;;;;;;;;;28.50;39.00;;;26.59;40.05;100866.94;12252267;19;20007;-89
2022/09/07 17:42:51;;;;;;;;;;;28.50;39.20;;;26.59;40.48;100923.22;12248007;19;19923;-88
2022/09/07 17:46:52;;;;;;;;;;;28.20;39.30;;;25.81;40.97;100823.56;12251408;19;20850;-88
2022/09/07 17:51:00;;;;;;;;;;;28.10;39.60;;;25.83;40.91;100845.63;12250213;19;19919;-87
2022/09/07 17:55:02;;;;;;;;;;;27.80;38.60;;;25.30;41.24;100832.19;12251494;19;19914;-88
2022/09/07 17:59:04;;;;;;;;;;;27.50;41.40;;;24.83;41.51;100787.72;12253194;19;20314;-90
2022/09/07 18:03:05;;;;;;;;;;;27.00;41.40;;;24.04;41.83;100725.50;12263028;19;20287;-90
2022/09/07 18:07:06;;;;;;;;;;;26.60;40.40;;;24.00;41.93;100778.34;12272970;19;19907;-89
2022/09/07 18:11:10;;;;;;;;;;;26.70;41.00;;;24.07;41.87;100831.88;12279878;19;19917;-90
2022/09/07 18:15:12;;;;;;;;;;;26.10;40.90;;;23.73;42.13;100795.59;12279115;19;19956;-89
2022/09/07 18:19:13;;;;;;;;;;;26.00;41.00;;;24.29;42.07;100871.19;12277138;19;19939;-90
2022/09/07 18:23:15;;;;;;;;;;;25.90;40.90;;;24.16;41.82;100852.19;12262319;19;19915;-90
2022/09/07 18:27:16;;;;;;;;;;;25.80;41.30;;;24.23;42.31;100877.22;12260618;19;19923;-88